createdAt,value
2023-11-05T00:01:30.852Z,95626.13
2023-11-05T00:03:58.135Z,95619.81
2023-11-05T00:06:25.021Z,95618.78
2023-11-05T00:08:51.794Z,95631.88
2023-11-05T00:11:18.524Z,95638.44
2023-11-05T00:13:45.405Z,95652.16
2023-11-05T00:16:12.274Z,95655.34
2023-11-05T00:18:39.231Z,95651.22
2023-11-05T00:21:07.224Z,95645.72
2023-11-05T00:23:34.052Z,95635.69
2023-11-05T00:26:00.961Z,95637.19
2023-11-05T00:28:27.755Z,95636.38
2023-11-05T00:30:54.624Z,95627.50
2023-11-05T00:33:22.180Z,95614.44
2023-11-05T00:35:49.557Z,95597.72
2023-11-05T00:38:19.349Z,95582.47
2023-11-05T00:40:46.229Z,95581.34
2023-11-05T00:43:14.599Z,95578.69
2023-11-05T00:45:41.442Z,95573.00
2023-11-05T00:48:08.354Z,95562.97
2023-11-05T00:50:35.282Z,95554.94
2023-11-05T00:53:04.480Z,95555.94
2023-11-05T00:55:37.446Z,95555.47
2023-11-05T00:58:04.220Z,95557.00
2023-11-05T01:00:31.036Z,95570.03
2023-11-05T01:02:57.882Z,95554.50
2023-11-05T01:05:24.736Z,95569.38
2023-11-05T01:07:51.549Z,95555.84
2023-11-05T01:10:18.382Z,95565.56
2023-11-05T01:12:45.157Z,95558.38
2023-11-05T01:15:12.025Z,95554.38
2023-11-05T01:17:38.819Z,95563.94
2023-11-05T01:20:08.402Z,95574.16
2023-11-05T01:22:35.304Z,95573.50
2023-11-05T01:25:02.159Z,95584.41
2023-11-05T01:27:29.047Z,95566.19
2023-11-05T01:29:55.852Z,95560.47
2023-11-05T01:32:22.649Z,95567.53
2023-11-05T01:34:49.441Z,95556.16
2023-11-05T01:37:16.276Z,95570.59
2023-11-05T01:39:43.091Z,95561.53
2023-11-05T01:42:09.872Z,95557.19
2023-11-05T01:44:36.694Z,95553.19
2023-11-05T01:47:03.688Z,95556.22
2023-11-05T01:49:31.394Z,95546.00
2023-11-05T01:51:58.605Z,95535.81
2023-11-05T01:54:26.539Z,95541.16
2023-11-05T01:56:53.465Z,95541.47
2023-11-05T01:59:21.023Z,95536.47
2023-11-05T02:01:51.643Z,95543.53
2023-11-05T02:04:18.781Z,95553.88
2023-11-05T02:06:47.385Z,95549.72
2023-11-05T02:09:14.380Z,95557.09
2023-11-05T02:11:41.106Z,95559.13
2023-11-05T02:14:16.098Z,95555.59
2023-11-05T02:16:42.978Z,95563.13
2023-11-05T02:19:10.281Z,95558.94
2023-11-05T02:21:47.702Z,95553.41
2023-11-05T02:24:14.758Z,95554.91
2023-11-05T02:26:49.318Z,95546.69
2023-11-05T02:29:16.213Z,95547.38
2023-11-05T02:31:46.137Z,95551.53
2023-11-05T02:34:12.817Z,95541.00
2023-11-05T02:36:39.617Z,95554.59
2023-11-05T02:39:06.361Z,95565.31
2023-11-05T02:41:33.102Z,95562.47
2023-11-05T02:44:00.504Z,95572.00
2023-11-05T02:46:27.325Z,95570.00
2023-11-05T02:48:55.110Z,95570.66
2023-11-05T02:51:21.880Z,95561.63
2023-11-05T02:53:48.721Z,95560.59
2023-11-05T02:56:15.488Z,95557.38
2023-11-05T02:58:43.370Z,95541.78
2023-11-05T03:01:11.233Z,95532.59
2023-11-05T03:03:38.121Z,95509.94
2023-11-05T03:06:05.417Z,95498.50
2023-11-05T03:08:32.135Z,95495.47
2023-11-05T03:10:58.973Z,95481.25
2023-11-05T03:13:25.735Z,95457.91
2023-11-05T03:15:52.509Z,95455.56
2023-11-05T03:18:19.401Z,95480.75
2023-11-05T03:20:47.293Z,95504.59
2023-11-05T03:23:14.050Z,95500.88
2023-11-05T03:25:42.673Z,95512.13
2023-11-05T03:28:09.564Z,95504.91
2023-11-05T03:30:36.303Z,95497.53
2023-11-05T03:33:05.877Z,95498.88
2023-11-05T03:35:35.112Z,95505.88
2023-11-05T03:38:01.917Z,95521.31
2023-11-05T03:40:28.745Z,95513.28
2023-11-05T03:42:55.524Z,95517.66
2023-11-05T03:45:22.298Z,95513.59
2023-11-05T03:47:51.765Z,95523.16
2023-11-05T03:50:20.649Z,95532.69
2023-11-05T03:52:47.419Z,95532.53
2023-11-05T03:55:14.338Z,95537.38
2023-11-05T03:57:41.450Z,95530.66
2023-11-05T04:00:09.285Z,95509.84
2023-11-05T04:02:37.240Z,95514.84
2023-11-05T04:05:06.229Z,95503.94
2023-11-05T04:07:33.094Z,95496.94
2023-11-05T04:10:00.445Z,95509.84
2023-11-05T04:12:28.412Z,95507.16
2023-11-05T04:14:55.241Z,95505.31
2023-11-05T04:17:24.795Z,95514.84
2023-11-05T04:19:54.190Z,95517.38
2023-11-05T04:22:21.033Z,95516.38
2023-11-05T04:24:47.820Z,95521.56
2023-11-05T04:27:14.585Z,95523.06
2023-11-05T04:29:41.308Z,95520.22
2023-11-05T04:32:09.028Z,95528.25
2023-11-05T04:34:35.806Z,95520.38
2023-11-05T04:37:03.107Z,95515.00
2023-11-05T04:39:30.209Z,95508.81
2023-11-05T04:41:57.102Z,95494.03
2023-11-05T04:44:24.013Z,95480.44
2023-11-05T04:46:52.118Z,95473.88
2023-11-05T04:49:18.990Z,95472.00
2023-11-05T04:51:45.757Z,95459.44
2023-11-05T04:54:12.516Z,95443.13
2023-11-05T04:56:39.383Z,95430.19
2023-11-05T04:59:07.147Z,95427.50
2023-11-05T05:01:34.267Z,95432.88
2023-11-05T05:04:01.705Z,95430.84
2023-11-05T05:06:28.493Z,95435.22
2023-11-05T05:08:55.305Z,95426.78
2023-11-05T05:11:22.475Z,95429.78
2023-11-05T05:13:49.228Z,95418.72
2023-11-05T05:16:19.698Z,95421.88
2023-11-05T05:18:47.226Z,95420.00
2023-11-05T05:21:14.556Z,95425.00
2023-11-05T05:23:41.274Z,95435.25
2023-11-05T05:26:08.144Z,95434.03
2023-11-05T05:28:35.658Z,95438.59
2023-11-05T05:31:04.293Z,95448.13
2023-11-05T05:33:31.181Z,95455.84
2023-11-05T05:35:57.963Z,95446.41
2023-11-05T05:38:25.122Z,95435.09
2023-11-05T05:40:51.935Z,95443.69
2023-11-05T05:43:18.767Z,95445.19
2023-11-05T05:45:46.183Z,95459.06
2023-11-05T05:48:13.460Z,95467.44
2023-11-05T05:50:40.313Z,95471.44
2023-11-05T05:53:07.030Z,95472.75
2023-11-05T05:55:34.241Z,95477.78
2023-11-05T05:58:01.593Z,95476.41
2023-11-05T06:00:29.337Z,95475.00
2023-11-05T06:02:56.312Z,95482.56
2023-11-05T06:05:23.482Z,95493.97
2023-11-05T06:07:50.305Z,95496.81
2023-11-05T06:10:17.493Z,95494.13
2023-11-05T06:12:44.264Z,95486.06
2023-11-05T06:15:14.037Z,95480.88
2023-11-05T06:17:42.317Z,95474.66
2023-11-05T06:20:11.977Z,95469.28
2023-11-05T06:22:39.703Z,95465.56
2023-11-05T06:25:09.938Z,95462.03
2023-11-05T06:27:39.017Z,95454.81
2023-11-05T06:30:10.333Z,95452.81
2023-11-05T06:32:37.185Z,95452.41
2023-11-05T06:35:04.277Z,95452.91
2023-11-05T06:37:41.451Z,95442.97
2023-11-05T06:40:15.145Z,95441.97
2023-11-05T06:42:42.025Z,95448.34
2023-11-05T06:45:10.202Z,95438.25
2023-11-05T06:47:37.051Z,95437.88
2023-11-05T06:50:03.943Z,95438.53
2023-11-05T06:52:30.644Z,95433.34
2023-11-05T06:54:57.927Z,95425.28
2023-11-05T06:57:25.213Z,95420.75
2023-11-05T06:59:52.354Z,95400.88
2023-11-05T07:02:19.143Z,95401.53
2023-11-05T07:04:45.916Z,95393.94
2023-11-05T07:07:12.798Z,95394.94
2023-11-05T07:09:42.260Z,95392.25
2023-11-05T07:12:09.658Z,95397.00
2023-11-05T07:14:36.763Z,95384.09
2023-11-05T07:17:05.811Z,95375.09
2023-11-05T07:19:32.859Z,95373.31
2023-11-05T07:21:59.688Z,95378.88
2023-11-05T07:24:26.420Z,95383.44
2023-11-05T07:26:53.240Z,95388.97
2023-11-05T07:29:20.317Z,95392.22
2023-11-05T07:31:47.442Z,95391.41
2023-11-05T07:34:15.937Z,95391.41
2023-11-05T07:36:42.781Z,95388.34
2023-11-05T07:39:13.072Z,95395.22
2023-11-05T07:41:39.874Z,95394.19
2023-11-05T07:44:07.196Z,95397.34
2023-11-05T07:46:36.746Z,95398.00
2023-11-05T07:49:05.627Z,95404.19
2023-11-05T07:51:35.142Z,95410.44
2023-11-05T07:54:03.766Z,95408.94
2023-11-05T07:56:30.693Z,95403.56
2023-11-05T07:58:57.467Z,95401.91
2023-11-05T08:01:26.467Z,95406.06
2023-11-05T08:03:53.214Z,95411.25
2023-11-05T08:06:20.984Z,95409.22
2023-11-05T08:08:55.123Z,95413.56
2023-11-05T08:11:22.122Z,95406.34
2023-11-05T08:13:48.975Z,95400.97
2023-11-05T08:16:15.852Z,95395.78
2023-11-05T08:18:42.862Z,95386.25
2023-11-05T08:21:10.149Z,95382.91
2023-11-05T08:23:38.249Z,95386.41
2023-11-05T08:26:06.272Z,95387.41
2023-11-05T08:28:33.578Z,95390.28
2023-11-05T08:31:00.388Z,95398.56
2023-11-05T08:33:27.233Z,95396.03
2023-11-05T08:35:55.512Z,95382.97
2023-11-05T08:38:23.879Z,95379.63
2023-11-05T08:40:51.248Z,95382.69
2023-11-05T08:43:19.176Z,95392.59
2023-11-05T08:45:50.621Z,95386.56
2023-11-05T08:48:21.487Z,95378.66
2023-11-05T08:50:48.371Z,95383.59
2023-11-05T08:53:16.601Z,95379.22
2023-11-05T08:55:46.321Z,95380.25
2023-11-05T08:58:16.239Z,95382.75
2023-11-05T09:00:43.301Z,95389.97
2023-11-05T09:03:10.994Z,95389.81
2023-11-05T09:05:39.842Z,95387.94
2023-11-05T09:08:10.196Z,95394.16
2023-11-05T09:10:37.319Z,95387.78
2023-11-05T09:13:06.113Z,95391.00
2023-11-05T09:15:34.527Z,95383.31
2023-11-05T09:18:01.389Z,95386.81
2023-11-05T09:20:33.063Z,95380.44
2023-11-05T09:23:00.670Z,95376.72
2023-11-05T09:25:29.090Z,95374.69
2023-11-05T09:27:57.474Z,95368.94
2023-11-05T09:30:24.261Z,95367.75
2023-11-05T09:32:51.197Z,95360.72
2023-11-05T09:35:18.933Z,95356.00
2023-11-05T09:37:47.022Z,95363.88
2023-11-05T09:40:20.515Z,95358.66
2023-11-05T09:43:06.715Z,95347.63
2023-11-05T09:45:36.588Z,95344.47
2023-11-05T09:48:07.156Z,95337.44
2023-11-05T09:50:34.783Z,95337.63
2023-11-05T09:53:09.589Z,95329.56
2023-11-05T09:55:37.114Z,95321.66
2023-11-05T09:58:04.099Z,95311.94
2023-11-05T10:00:34.275Z,95316.84
2023-11-05T10:03:20.587Z,95314.16
2023-11-05T10:05:49.040Z,95311.28
2023-11-05T10:08:16.268Z,95308.88
2023-11-05T10:10:46.102Z,95304.34
2023-11-05T10:13:14.713Z,95288.78
2023-11-05T10:15:43.281Z,95283.97
2023-11-05T10:18:15.405Z,95293.19
2023-11-05T10:20:56.227Z,95305.63
2023-11-05T10:23:26.976Z,95301.72
2023-11-05T10:25:54.960Z,95292.41
2023-11-05T10:28:24.492Z,95291.28
2023-11-05T10:30:56.351Z,95280.44
2023-11-05T10:33:25.442Z,95284.34
2023-11-05T10:35:52.663Z,95284.34
2023-11-05T10:38:20.410Z,95276.06
2023-11-05T10:40:53.339Z,95266.34
2023-11-05T10:43:23.751Z,95264.31
2023-11-05T10:45:54.345Z,95250.69
2023-11-05T10:48:21.209Z,95248.66
2023-11-05T10:50:49.688Z,95246.44
2023-11-05T10:53:17.210Z,95239.00
2023-11-05T10:55:45.384Z,95230.94
2023-11-05T11:00:46.375Z,95228.50
2023-11-05T11:03:15.374Z,95234.34
2023-11-05T11:05:42.188Z,95217.25
2023-11-05T11:08:13.296Z,95211.97
2023-11-05T11:10:46.813Z,95204.72
2023-11-05T11:13:16.263Z,95201.69
2023-11-05T11:15:46.464Z,95203.13
2023-11-05T11:18:22.104Z,95203.78
2023-11-05T11:20:50.137Z,95207.31
2023-11-05T11:23:18.328Z,95207.94
2023-11-05T11:26:01.155Z,95204.44
2023-11-05T11:28:29.517Z,95215.00
2023-11-05T11:30:57.707Z,95215.47
2023-11-05T11:33:25.829Z,95229.38
2023-11-05T11:35:52.985Z,95243.06
2023-11-05T11:38:19.836Z,95255.69
2023-11-05T11:40:59.470Z,95263.94
2023-11-05T11:43:30.125Z,95262.28
2023-11-05T11:45:57.726Z,95266.47
2023-11-05T11:48:27.800Z,95265.22
2023-11-05T11:51:11.709Z,95263.47
2023-11-05T11:53:41.535Z,95266.16
2023-11-05T11:56:08.995Z,95272.13
2023-11-05T11:58:41.301Z,95268.13
2023-11-05T12:01:17.907Z,95266.47
2023-11-05T12:03:52.250Z,95260.25
2023-11-05T12:06:19.791Z,95257.56
2023-11-05T12:08:47.247Z,95251.78
2023-11-05T12:11:18.355Z,95260.75
2023-11-05T12:13:48.697Z,95251.69
2023-11-05T12:16:18.242Z,95245.91
2023-11-05T12:18:46.177Z,95246.31
2023-11-05T12:21:15.947Z,95235.91
2023-11-05T12:23:45.354Z,95227.56
2023-11-05T12:26:14.355Z,95229.59
2023-11-05T12:28:41.463Z,95235.22
2023-11-05T12:31:09.184Z,95238.97
2023-11-05T12:33:40.997Z,95247.75
2023-11-05T12:36:09.161Z,95244.31
2023-11-05T12:38:36.505Z,95250.41
2023-11-05T12:41:05.057Z,95260.69
2023-11-05T12:43:31.962Z,95261.75
2023-11-05T12:46:06.259Z,95271.13
2023-11-05T12:48:34.077Z,95264.06
2023-11-05T12:51:03.165Z,95268.81
2023-11-05T12:53:31.877Z,95269.41
2023-11-05T12:56:06.526Z,95268.84
2023-11-05T12:58:35.249Z,95262.19
2023-11-05T13:01:03.806Z,95268.81
2023-11-05T13:03:35.127Z,95262.13
2023-11-05T13:06:04.399Z,95262.38
2023-11-05T13:08:35.589Z,95257.44
2023-11-05T13:11:06.785Z,95265.00
2023-11-05T13:13:35.960Z,95269.28
2023-11-05T13:16:03.890Z,95274.63
2023-11-05T13:18:31.253Z,95265.22
2023-11-05T13:20:58.639Z,95271.25
2023-11-05T13:23:27.732Z,95273.13
2023-11-05T13:25:55.132Z,95274.72
2023-11-05T13:28:22.561Z,95272.66
2023-11-05T13:30:49.508Z,95271.25
2023-11-05T13:33:17.616Z,95264.41
2023-11-05T13:35:46.558Z,95264.22
2023-11-05T13:38:13.657Z,95265.13
2023-11-05T13:40:40.503Z,95276.69
2023-11-05T13:43:07.667Z,95284.69
2023-11-05T13:45:35.018Z,95279.69
2023-11-05T13:48:01.907Z,95272.47
2023-11-05T13:50:31.183Z,95253.88
2023-11-05T13:52:58.890Z,95262.78
2023-11-05T13:55:25.760Z,95269.59
2023-11-05T13:57:53.854Z,95287.19
2023-11-05T14:00:21.717Z,95291.94
2023-11-05T14:02:48.806Z,95291.09
2023-11-05T14:05:16.898Z,95298.06
2023-11-05T14:07:43.898Z,95303.16
2023-11-05T14:10:13.206Z,95306.91
2023-11-05T14:12:40.291Z,95308.75
2023-11-05T14:15:09.044Z,95323.44
2023-11-05T14:17:36.734Z,95333.84
2023-11-05T14:20:10.060Z,95328.22
2023-11-05T14:22:37.018Z,95329.63
2023-11-05T14:25:03.970Z,95337.06
2023-11-05T14:27:30.853Z,95345.16
2023-11-05T14:29:57.883Z,95351.19
2023-11-05T14:32:24.931Z,95343.09
2023-11-05T14:34:52.637Z,95353.50
2023-11-05T14:37:20.067Z,95361.19
2023-11-05T14:39:46.920Z,95357.84
2023-11-05T14:42:13.851Z,95365.47
2023-11-05T14:44:41.782Z,95372.06
2023-11-05T14:47:10.719Z,95369.38
2023-11-05T14:49:37.645Z,95370.78
2023-11-05T14:52:07.723Z,95369.50
2023-11-05T14:54:37.182Z,95378.97
2023-11-05T14:57:05.104Z,95377.03
2023-11-05T14:59:32.183Z,95359.34
2023-11-05T15:01:59.269Z,95355.06
2023-11-05T15:04:26.682Z,95354.78
2023-11-05T15:06:55.324Z,95352.19
2023-11-05T15:09:22.112Z,95357.03
2023-11-05T15:11:50.488Z,95357.13
2023-11-05T15:14:17.429Z,95358.69
2023-11-05T15:16:44.677Z,95363.59
2023-11-05T15:19:11.498Z,95369.53
2023-11-05T15:21:46.345Z,95360.81
2023-11-05T15:24:14.976Z,95372.59
2023-11-05T15:26:41.946Z,95362.88
2023-11-05T15:29:09.711Z,95366.38
2023-11-05T15:31:37.698Z,95364.72
2023-11-05T15:34:05.099Z,95378.34
2023-11-05T15:36:32.963Z,95388.28
2023-11-05T15:39:00.106Z,95390.97
2023-11-05T15:41:28.017Z,95391.31
2023-11-05T15:43:55.703Z,95404.09
2023-11-05T15:46:26.111Z,95402.25
2023-11-05T15:48:53.296Z,95396.69
2023-11-05T15:51:24.003Z,95403.06
2023-11-05T15:53:51.278Z,95400.22
2023-11-05T15:56:21.044Z,95406.06
2023-11-05T15:58:49.099Z,95409.41
2023-11-05T16:01:15.960Z,95413.78
2023-11-05T16:03:43.025Z,95423.50
2023-11-05T16:06:10.218Z,95422.03
2023-11-05T16:08:37.742Z,95425.72
2023-11-05T16:11:05.554Z,95427.41
2023-11-05T16:13:32.492Z,95432.59
2023-11-05T16:15:59.454Z,95441.31
2023-11-05T16:18:26.300Z,95445.31
2023-11-05T16:20:53.238Z,95441.41
2023-11-05T16:23:20.021Z,95445.22
2023-11-05T16:25:47.477Z,95457.94
2023-11-05T16:28:16.192Z,95454.72
2023-11-05T16:30:43.742Z,95460.16
2023-11-05T16:33:11.859Z,95445.16
2023-11-05T16:35:40.469Z,95452.69
2023-11-05T16:38:08.277Z,95451.28
2023-11-05T16:40:37.664Z,95459.19
2023-11-05T16:43:05.263Z,95469.94
2023-11-05T16:45:32.003Z,95469.47
2023-11-05T16:47:58.784Z,95476.25
2023-11-05T16:50:26.392Z,95480.31
2023-11-05T16:52:53.212Z,95487.72
2023-11-05T16:55:22.022Z,95491.44
2023-11-05T16:57:48.765Z,95489.75
2023-11-05T17:00:18.189Z,95500.91
2023-11-05T17:02:47.480Z,95509.50
2023-11-05T17:05:15.711Z,95504.69
2023-11-05T17:07:43.182Z,95495.31
2023-11-05T17:10:11.814Z,95510.16
2023-11-05T17:12:39.613Z,95529.81
2023-11-05T17:15:08.569Z,95536.50
2023-11-05T17:17:40.135Z,95537.97
2023-11-05T17:20:08.980Z,95532.88
2023-11-05T17:22:35.911Z,95543.31
2023-11-05T17:25:05.316Z,95556.38
2023-11-05T17:27:35.595Z,95539.06
2023-11-05T17:30:02.449Z,95540.53
2023-11-05T17:32:29.452Z,95548.22
2023-11-05T17:34:56.479Z,95546.88
2023-11-05T17:37:24.086Z,95541.28
2023-11-05T17:39:51.495Z,95555.94
2023-11-05T17:42:18.333Z,95564.84
2023-11-05T17:44:45.179Z,95572.91
2023-11-05T17:47:13.092Z,95566.03
2023-11-05T17:49:40.823Z,95581.53
2023-11-05T17:52:10.015Z,95575.69
2023-11-05T17:54:36.782Z,95586.63
2023-11-05T17:57:04.794Z,95596.56
2023-11-05T17:59:33.103Z,95607.13
2023-11-05T18:01:59.967Z,95611.69
2023-11-05T18:04:28.784Z,95611.47
2023-11-05T18:06:55.764Z,95626.63
2023-11-05T18:09:22.550Z,95622.91
2023-11-05T18:11:49.948Z,95625.25
2023-11-05T18:14:18.911Z,95633.16
2023-11-05T18:16:45.989Z,95630.28
2023-11-05T18:19:12.967Z,95641.88
2023-11-05T18:21:41.351Z,95624.16
2023-11-05T18:24:11.666Z,95635.41
2023-11-05T18:26:38.680Z,95634.38
2023-11-05T18:29:06.969Z,95637.25
2023-11-05T18:31:34.166Z,95643.31
2023-11-05T18:34:05.413Z,95638.59
2023-11-05T18:36:35.042Z,95645.44
2023-11-05T18:39:01.770Z,95644.25
2023-11-05T18:41:28.531Z,95639.72
2023-11-05T18:43:55.316Z,95641.53
2023-11-05T18:46:22.111Z,95648.97
2023-11-05T18:48:49.242Z,95652.69
2023-11-05T18:51:20.611Z,95653.69
2023-11-05T18:53:47.358Z,95653.03
2023-11-05T18:56:14.577Z,95648.22
2023-11-05T18:58:41.485Z,95651.44
2023-11-05T19:01:08.689Z,95658.00
2023-11-05T19:03:37.438Z,95643.72
2023-11-05T19:06:08.487Z,95662.91
2023-11-05T19:08:35.178Z,95656.88
2023-11-05T19:11:02.040Z,95663.47
2023-11-05T19:13:29.672Z,95665.19
2023-11-05T19:15:56.419Z,95671.94
2023-11-05T19:18:24.644Z,95679.53
2023-11-05T19:20:53.346Z,95676.53
2023-11-05T19:23:21.080Z,95674.22
2023-11-05T19:25:48.180Z,95684.31
2023-11-05T19:28:15.249Z,95696.22
2023-11-05T19:30:42.166Z,95699.09
2023-11-05T19:33:11.755Z,95707.34
2023-11-05T19:35:42.590Z,95702.97
2023-11-05T19:38:09.362Z,95705.00
2023-11-05T19:40:36.189Z,95719.28
2023-11-05T19:43:04.528Z,95719.28
2023-11-05T19:45:31.404Z,95717.63
2023-11-05T19:47:58.511Z,95710.22
2023-11-05T19:50:27.433Z,95720.59
2023-11-05T19:52:54.320Z,95723.94
2023-11-05T19:55:22.415Z,95732.72
2023-11-05T19:57:49.536Z,95737.72
2023-11-05T20:00:30.957Z,95747.28
2023-11-05T20:02:58.144Z,95750.84
2023-11-05T20:05:27.590Z,95740.91
2023-11-05T20:07:54.824Z,95747.28
2023-11-05T20:10:21.841Z,95748.31
2023-11-05T20:12:51.316Z,95766.31
2023-11-05T20:15:19.904Z,95767.97
2023-11-05T20:17:46.814Z,95768.28
2023-11-05T20:20:13.628Z,95774.16
2023-11-05T20:22:42.788Z,95777.50
2023-11-05T20:25:10.245Z,95771.75
2023-11-05T20:27:37.932Z,95789.91
2023-11-05T20:30:05.081Z,95792.25
2023-11-05T20:32:32.677Z,95802.50
2023-11-05T20:34:59.531Z,95802.13
2023-11-05T20:37:26.468Z,95807.16
2023-11-05T20:39:53.314Z,95817.38
2023-11-05T20:42:20.961Z,95808.16
2023-11-05T20:44:47.719Z,95821.41
2023-11-05T20:47:14.601Z,95820.56
2023-11-05T20:49:41.532Z,95829.47
2023-11-05T20:52:08.404Z,95829.13
2023-11-05T20:54:37.988Z,95836.22
2023-11-05T20:57:08.863Z,95836.00
2023-11-05T20:59:35.593Z,95838.91
2023-11-05T21:02:03.827Z,95839.72
2023-11-05T21:04:31.130Z,95851.16
2023-11-05T21:06:58.224Z,95861.94
2023-11-05T21:09:26.113Z,95867.31
2023-11-05T21:11:54.269Z,95870.84
2023-11-05T21:14:21.088Z,95875.00
2023-11-05T21:16:49.073Z,95868.28
2023-11-05T21:19:15.897Z,95877.19
2023-11-05T21:21:43.350Z,95881.75
2023-11-05T21:24:11.384Z,95890.28
2023-11-05T21:26:38.156Z,95882.69
2023-11-05T21:29:04.962Z,95897.69
2023-11-05T21:31:31.976Z,95907.91
2023-11-05T21:33:59.279Z,95909.59
2023-11-05T21:36:26.230Z,95914.63
2023-11-05T21:38:53.003Z,95914.28
2023-11-05T21:41:20.686Z,95919.28
2023-11-05T21:43:48.792Z,95909.22
2023-11-05T21:46:15.998Z,95928.75
2023-11-05T21:48:43.326Z,95932.13
2023-11-05T21:51:10.220Z,95933.59
2023-11-05T21:53:38.487Z,95939.00
2023-11-05T21:56:05.518Z,95936.97
2023-11-05T21:58:32.346Z,95944.88
2023-11-05T22:00:59.108Z,95947.19
2023-11-05T22:03:26.217Z,95953.28
2023-11-05T22:05:53.103Z,95956.63
2023-11-05T22:08:19.871Z,95957.28
2023-11-05T22:10:48.224Z,95957.28
2023-11-05T22:13:15.111Z,95959.78
2023-11-05T22:15:41.992Z,95969.38
2023-11-05T22:18:09.017Z,95978.78
2023-11-05T22:20:37.560Z,95963.28
2023-11-05T22:23:04.555Z,95974.53
2023-11-05T22:25:32.731Z,95980.75
2023-11-05T22:28:00.808Z,95983.47
2023-11-05T22:30:27.809Z,95971.84
2023-11-05T22:32:54.740Z,95977.59
2023-11-05T22:35:21.889Z,95985.00
2023-11-05T22:37:48.865Z,95988.91
2023-11-05T22:40:15.888Z,95999.84
2023-11-05T22:42:42.859Z,95998.00
2023-11-05T22:45:12.896Z,96009.97
2023-11-05T22:47:44.200Z,96004.47
2023-11-05T22:50:11.641Z,96011.38
2023-11-05T22:52:38.520Z,96024.53
2023-11-05T22:55:06.102Z,96030.41
2023-11-05T22:57:33.002Z,96037.13
2023-11-05T23:00:00.027Z,96045.59
2023-11-05T23:02:28.636Z,96046.09
2023-11-05T23:04:55.887Z,96044.75
2023-11-05T23:07:22.881Z,96046.63
2023-11-05T23:09:49.802Z,96055.69
2023-11-05T23:12:16.647Z,96058.38
2023-11-05T23:14:43.512Z,96057.56
2023-11-05T23:17:11.747Z,96059.56
2023-11-05T23:19:39.663Z,96063.78
2023-11-05T23:22:06.635Z,96070.84
2023-11-05T23:24:34.552Z,96069.84
2023-11-05T23:27:02.328Z,96069.31
2023-11-05T23:29:29.556Z,96082.63
2023-11-05T23:31:56.771Z,96077.75
2023-11-05T23:34:23.883Z,96060.38
2023-11-05T23:36:50.964Z,96082.59
2023-11-05T23:39:17.819Z,96073.34
2023-11-05T23:41:45.907Z,96079.59
2023-11-05T23:44:12.829Z,96080.72
2023-11-05T23:46:41.553Z,96081.25
2023-11-05T23:49:08.428Z,96082.63
2023-11-05T23:51:35.334Z,96084.66
2023-11-05T23:54:02.356Z,96092.88
2023-11-05T23:56:30.033Z,96100.47
2023-11-05T23:58:56.838Z,96113.25
